sensor_id;sensor_type;location;lat;lon;timestamp;P1;durP1;ratioP1;P2;durP2;ratioP2
4232;SDS011;2130;48.472;11.934;2023-07-22T00:00:06;6.67;;;1.13;;
4232;SDS011;2130;48.472;11.934;2023-07-22T00:02:41;8.07;;;1.37;;
4232;SDS011;2130;48.472;11.934;2023-07-22T00:05:10;8.00;;;1.20;;
4232;SDS011;2130;48.472;11.934;2023-07-22T00:07:41;7.97;;;1.50;;
4232;SDS011;2130;48.472;11.934;2023-07-22T00:10:09;7.40;;;1.10;;
4232;SDS011;2130;48.472;11.934;2023-07-22T00:12:39;8.30;;;1.17;;
4232;SDS011;2130;48.472;11.934;2023-07-22T00:15:08;7.80;;;1.10;;
4232;SDS011;2130;48.472;11.934;2023-07-22T00:17:38;7.97;;;1.10;;
4232;SDS011;2130;48.472;11.934;2023-07-22T00:20:08;8.50;;;1.27;;
4232;SDS011;2130;48.472;11.934;2023-07-22T00:22:38;8.10;;;1.30;;
4232;SDS011;2130;48.472;11.934;2023-07-22T00:25:09;8.00;;;1.10;;
4232;SDS011;2130;48.472;11.934;2023-07-22T00:27:40;8.40;;;1.13;;
4232;SDS011;2130;48.472;11.934;2023-07-22T00:30:11;8.17;;;1.07;;
4232;SDS011;2130;48.472;11.934;2023-07-22T00:32:39;7.73;;;1.20;;
4232;SDS011;2130;48.472;11.934;2023-07-22T00:35:08;8.97;;;1.30;;
4232;SDS011;2130;48.472;11.934;2023-07-22T00:37:37;8.50;;;1.20;;
4232;SDS011;2130;48.472;11.934;2023-07-22T00:40:09;8.70;;;1.17;;
4232;SDS011;2130;48.472;11.934;2023-07-22T00:42:39;8.70;;;1.20;;
4232;SDS011;2130;48.472;11.934;2023-07-22T00:48:03;10.63;;;1.40;;
4232;SDS011;2130;48.472;11.934;2023-07-22T00:50:34;8.77;;;1.20;;
4232;SDS011;2130;48.472;11.934;2023-07-22T00:53:03;7.90;;;1.17;;
4232;SDS011;2130;48.472;11.934;2023-07-22T00:55:34;8.40;;;1.47;;
4232;SDS011;2130;48.472;11.934;2023-07-22T00:58:03;8.03;;;1.10;;
4232;SDS011;2130;48.472;11.934;2023-07-22T01:00:32;8.37;;;1.20;;
4232;SDS011;2130;48.472;11.934;2023-07-22T01:03:01;10.27;;;1.40;;
4232;SDS011;2130;48.472;11.934;2023-07-22T01:05:30;9.53;;;1.13;;
4232;SDS011;2130;48.472;11.934;2023-07-22T01:07:59;9.13;;;1.40;;
4232;SDS011;2130;48.472;11.934;2023-07-22T01:10:28;8.10;;;1.10;;
4232;SDS011;2130;48.472;11.934;2023-07-22T01:12:58;8.70;;;1.50;;
4232;SDS011;2130;48.472;11.934;2023-07-22T01:15:26;8.13;;;1.30;;
4232;SDS011;2130;48.472;11.934;2023-07-22T01:17:57;8.27;;;1.10;;
4232;SDS011;2130;48.472;11.934;2023-07-22T01:20:29;8.33;;;1.20;;
4232;SDS011;2130;48.472;11.934;2023-07-22T01:22:59;7.80;;;1.33;;
4232;SDS011;2130;48.472;11.934;2023-07-22T01:25:27;9.77;;;1.40;;
4232;SDS011;2130;48.472;11.934;2023-07-22T01:27:56;8.63;;;1.20;;
4232;SDS011;2130;48.472;11.934;2023-07-22T01:30:25;9.03;;;1.23;;
4232;SDS011;2130;48.472;11.934;2023-07-22T01:32:55;7.47;;;1.10;;
4232;SDS011;2130;48.472;11.934;2023-07-22T01:35:23;7.90;;;1.13;;
4232;SDS011;2130;48.472;11.934;2023-07-22T01:37:53;8.47;;;1.27;;
4232;SDS011;2130;48.472;11.934;2023-07-22T01:40:24;8.33;;;1.20;;
4232;SDS011;2130;48.472;11.934;2023-07-22T01:42:53;9.60;;;1.40;;
4232;SDS011;2130;48.472;11.934;2023-07-22T01:45:22;8.33;;;1.10;;
4232;SDS011;2130;48.472;11.934;2023-07-22T01:47:51;8.83;;;1.30;;
4232;SDS011;2130;48.472;11.934;2023-07-22T01:50:20;9.50;;;1.30;;
4232;SDS011;2130;48.472;11.934;2023-07-22T01:52:49;7.77;;;1.30;;
4232;SDS011;2130;48.472;11.934;2023-07-22T01:55:18;8.13;;;1.10;;
4232;SDS011;2130;48.472;11.934;2023-07-22T01:57:49;9.40;;;1.20;;
4232;SDS011;2130;48.472;11.934;2023-07-22T02:00:18;10.03;;;1.40;;
4232;SDS011;2130;48.472;11.934;2023-07-22T02:02:48;8.80;;;1.20;;
4232;SDS011;2130;48.472;11.934;2023-07-22T02:05:17;9.87;;;1.30;;
4232;SDS011;2130;48.472;11.934;2023-07-22T02:07:46;8.60;;;1.23;;
4232;SDS011;2130;48.472;11.934;2023-07-22T02:10:14;8.03;;;1.20;;
4232;SDS011;2130;48.472;11.934;2023-07-22T02:12:43;8.10;;;1.17;;
4232;SDS011;2130;48.472;11.934;2023-07-22T02:15:13;8.50;;;1.13;;
4232;SDS011;2130;48.472;11.934;2023-07-22T02:17:42;7.90;;;1.10;;
4232;SDS011;2130;48.472;11.934;2023-07-22T02:20:11;8.20;;;1.20;;
4232;SDS011;2130;48.472;11.934;2023-07-22T02:22:40;9.70;;;1.20;;
4232;SDS011;2130;48.472;11.934;2023-07-22T02:25:09;9.33;;;1.20;;
4232;SDS011;2130;48.472;11.934;2023-07-22T02:27:38;9.67;;;1.10;;
4232;SDS011;2130;48.472;11.934;2023-07-22T02:30:08;8.87;;;1.30;;
4232;SDS011;2130;48.472;11.934;2023-07-22T02:32:39;8.07;;;1.23;;
4232;SDS011;2130;48.472;11.934;2023-07-22T02:35:09;8.00;;;1.20;;
4232;SDS011;2130;48.472;11.934;2023-07-22T02:37:38;9.47;;;1.20;;
4232;SDS011;2130;48.472;11.934;2023-07-22T02:40:07;8.90;;;1.10;;
4232;SDS011;2130;48.472;11.934;2023-07-22T02:42:37;10.00;;;1.33;;
4232;SDS011;2130;48.472;11.934;2023-07-22T02:45:07;8.90;;;1.30;;
4232;SDS011;2130;48.472;11.934;2023-07-22T02:47:36;9.20;;;1.10;;
4232;SDS011;2130;48.472;11.934;2023-07-22T02:50:06;9.20;;;1.40;;
4232;SDS011;2130;48.472;11.934;2023-07-22T02:52:36;9.23;;;1.60;;
4232;SDS011;2130;48.472;11.934;2023-07-22T02:55:05;10.30;;;1.33;;
4232;SDS011;2130;48.472;11.934;2023-07-22T02:57:36;9.50;;;1.33;;
4232;SDS011;2130;48.472;11.934;2023-07-22T03:00:05;10.73;;;1.30;;
4232;SDS011;2130;48.472;11.934;2023-07-22T03:02:35;9.70;;;1.40;;
4232;SDS011;2130;48.472;11.934;2023-07-22T03:05:05;10.20;;;1.40;;
4232;SDS011;2130;48.472;11.934;2023-07-22T03:07:37;8.90;;;1.20;;
4232;SDS011;2130;48.472;11.934;2023-07-22T03:10:06;9.07;;;1.20;;
4232;SDS011;2130;48.472;11.934;2023-07-22T03:12:35;8.67;;;1.10;;
4232;SDS011;2130;48.472;11.934;2023-07-22T03:15:05;9.43;;;1.13;;
4232;SDS011;2130;48.472;11.934;2023-07-22T03:17:36;10.03;;;1.50;;
4232;SDS011;2130;48.472;11.934;2023-07-22T03:20:07;10.00;;;1.37;;
4232;SDS011;2130;48.472;11.934;2023-07-22T03:22:41;9.97;;;1.30;;
4232;SDS011;2130;48.472;11.934;2023-07-22T03:25:10;10.80;;;1.40;;
4232;SDS011;2130;48.472;11.934;2023-07-22T03:27:40;9.90;;;1.40;;
4232;SDS011;2130;48.472;11.934;2023-07-22T03:30:10;9.73;;;1.40;;
4232;SDS011;2130;48.472;11.934;2023-07-22T03:32:42;9.70;;;1.37;;
4232;SDS011;2130;48.472;11.934;2023-07-22T03:35:12;10.70;;;1.40;;
4232;SDS011;2130;48.472;11.934;2023-07-22T03:37:41;9.90;;;1.30;;
4232;SDS011;2130;48.472;11.934;2023-07-22T03:40:10;11.10;;;1.50;;
4232;SDS011;2130;48.472;11.934;2023-07-22T03:42:47;10.90;;;1.47;;
4232;SDS011;2130;48.472;11.934;2023-07-22T03:45:17;9.90;;;1.33;;
4232;SDS011;2130;48.472;11.934;2023-07-22T03:47:46;10.83;;;1.40;;
4232;SDS011;2130;48.472;11.934;2023-07-22T03:50:20;10.30;;;1.30;;
4232;SDS011;2130;48.472;11.934;2023-07-22T03:52:49;9.93;;;1.40;;
4232;SDS011;2130;48.472;11.934;2023-07-22T03:55:17;9.43;;;1.30;;
4232;SDS011;2130;48.472;11.934;2023-07-22T03:57:47;10.93;;;1.27;;
4232;SDS011;2130;48.472;11.934;2023-07-22T04:00:15;10.00;;;1.23;;
4232;SDS011;2130;48.472;11.934;2023-07-22T04:02:44;10.60;;;1.47;;
4232;SDS011;2130;48.472;11.934;2023-07-22T04:05:13;9.80;;;1.40;;
4232;SDS011;2130;48.472;11.934;2023-07-22T04:07:43;10.63;;;1.40;;
4232;SDS011;2130;48.472;11.934;2023-07-22T04:10:12;10.30;;;1.20;;
4232;SDS011;2130;48.472;11.934;2023-07-22T04:12:41;10.00;;;1.47;;
4232;SDS011;2130;48.472;11.934;2023-07-22T04:15:10;10.70;;;1.30;;
4232;SDS011;2130;48.472;11.934;2023-07-22T04:17:39;11.03;;;1.73;;
4232;SDS011;2130;48.472;11.934;2023-07-22T04:20:08;10.37;;;1.63;;
4232;SDS011;2130;48.472;11.934;2023-07-22T04:22:37;11.70;;;1.30;;
4232;SDS011;2130;48.472;11.934;2023-07-22T04:25:08;10.40;;;1.47;;
4232;SDS011;2130;48.472;11.934;2023-07-22T04:27:37;11.40;;;1.60;;
4232;SDS011;2130;48.472;11.934;2023-07-22T04:30:06;10.50;;;1.37;;
4232;SDS011;2130;48.472;11.934;2023-07-22T04:32:36;11.27;;;1.47;;
4232;SDS011;2130;48.472;11.934;2023-07-22T04:35:07;10.30;;;1.60;;
4232;SDS011;2130;48.472;11.934;2023-07-22T04:37:37;9.77;;;1.50;;
4232;SDS011;2130;48.472;11.934;2023-07-22T04:40:06;10.20;;;1.57;;
4232;SDS011;2130;48.472;11.934;2023-07-22T04:42:41;10.33;;;1.60;;
4232;SDS011;2130;48.472;11.934;2023-07-22T04:45:10;9.40;;;1.57;;
4232;SDS011;2130;48.472;11.934;2023-07-22T04:47:39;10.07;;;1.50;;
4232;SDS011;2130;48.472;11.934;2023-07-22T04:50:08;9.40;;;1.33;;
4232;SDS011;2130;48.472;11.934;2023-07-22T04:52:38;11.57;;;1.77;;
4232;SDS011;2130;48.472;11.934;2023-07-22T04:55:09;10.70;;;1.80;;
4232;SDS011;2130;48.472;11.934;2023-07-22T05:00:33;10.50;;;1.67;;
4232;SDS011;2130;48.472;11.934;2023-07-22T05:03:02;10.40;;;1.70;;
4232;SDS011;2130;48.472;11.934;2023-07-22T05:05:31;9.60;;;1.40;;
4232;SDS011;2130;48.472;11.934;2023-07-22T05:08:00;10.40;;;1.60;;
4232;SDS011;2130;48.472;11.934;2023-07-22T05:10:31;11.03;;;1.90;;
4232;SDS011;2130;48.472;11.934;2023-07-22T05:12:59;10.80;;;1.60;;
4232;SDS011;2130;48.472;11.934;2023-07-22T05:15:28;10.93;;;1.50;;
4232;SDS011;2130;48.472;11.934;2023-07-22T05:17:56;9.57;;;1.63;;
4232;SDS011;2130;48.472;11.934;2023-07-22T05:20:25;9.23;;;1.50;;
4232;SDS011;2130;48.472;11.934;2023-07-22T05:22:54;17.47;;;2.00;;
4232;SDS011;2130;48.472;11.934;2023-07-22T05:25:24;10.13;;;1.57;;
4232;SDS011;2130;48.472;11.934;2023-07-22T05:27:54;10.03;;;1.63;;
4232;SDS011;2130;48.472;11.934;2023-07-22T05:30:23;8.70;;;1.53;;
4232;SDS011;2130;48.472;11.934;2023-07-22T05:35:56;9.40;;;1.30;;
4232;SDS011;2130;48.472;11.934;2023-07-22T05:38:24;9.77;;;1.80;;
4232;SDS011;2130;48.472;11.934;2023-07-22T05:40:53;8.13;;;1.60;;
4232;SDS011;2130;48.472;11.934;2023-07-22T05:43:24;10.23;;;1.60;;
4232;SDS011;2130;48.472;11.934;2023-07-22T05:45:52;9.30;;;1.70;;
4232;SDS011;2130;48.472;11.934;2023-07-22T05:48:21;9.77;;;1.70;;
4232;SDS011;2130;48.472;11.934;2023-07-22T05:50:50;8.80;;;1.80;;
4232;SDS011;2130;48.472;11.934;2023-07-22T05:53:18;8.60;;;1.73;;
4232;SDS011;2130;48.472;11.934;2023-07-22T05:55:47;8.20;;;1.30;;
4232;SDS011;2130;48.472;11.934;2023-07-22T05:58:16;9.23;;;1.53;;
4232;SDS011;2130;48.472;11.934;2023-07-22T06:00:47;7.20;;;1.20;;
4232;SDS011;2130;48.472;11.934;2023-07-22T06:03:18;9.27;;;1.40;;
4232;SDS011;2130;48.472;11.934;2023-07-22T06:05:48;8.13;;;1.63;;
4232;SDS011;2130;48.472;11.934;2023-07-22T06:08:17;8.90;;;1.53;;
4232;SDS011;2130;48.472;11.934;2023-07-22T06:10:46;8.23;;;1.50;;
4232;SDS011;2130;48.472;11.934;2023-07-22T06:13:15;9.30;;;1.90;;
4232;SDS011;2130;48.472;11.934;2023-07-22T06:15:43;7.33;;;1.50;;
4232;SDS011;2130;48.472;11.934;2023-07-22T06:18:14;8.30;;;1.60;;
4232;SDS011;2130;48.472;11.934;2023-07-22T06:20:42;7.83;;;1.60;;
4232;SDS011;2130;48.472;11.934;2023-07-22T06:23:11;8.33;;;1.50;;
4232;SDS011;2130;48.472;11.934;2023-07-22T06:25:40;10.10;;;1.80;;
4232;SDS011;2130;48.472;11.934;2023-07-22T06:28:09;7.73;;;1.57;;
4232;SDS011;2130;48.472;11.934;2023-07-22T06:30:37;7.70;;;1.50;;
4232;SDS011;2130;48.472;11.934;2023-07-22T06:33:07;8.57;;;1.37;;
4232;SDS011;2130;48.472;11.934;2023-07-22T06:35:42;7.77;;;1.30;;
4232;SDS011;2130;48.472;11.934;2023-07-22T06:38:12;7.57;;;1.60;;
4232;SDS011;2130;48.472;11.934;2023-07-22T06:40:41;7.13;;;1.50;;
4232;SDS011;2130;48.472;11.934;2023-07-22T06:43:10;6.50;;;1.30;;
4232;SDS011;2130;48.472;11.934;2023-07-22T06:45:39;7.40;;;1.30;;
4232;SDS011;2130;48.472;11.934;2023-07-22T06:48:07;7.53;;;1.70;;
4232;SDS011;2130;48.472;11.934;2023-07-22T06:50:36;6.20;;;1.13;;
4232;SDS011;2130;48.472;11.934;2023-07-22T06:53:06;7.23;;;1.57;;
4232;SDS011;2130;48.472;11.934;2023-07-22T06:55:36;7.47;;;1.67;;
4232;SDS011;2130;48.472;11.934;2023-07-22T06:58:05;10.27;;;1.80;;
4232;SDS011;2130;48.472;11.934;2023-07-22T07:00:34;8.00;;;1.30;;
4232;SDS011;2130;48.472;11.934;2023-07-22T07:03:02;10.60;;;1.47;;
4232;SDS011;2130;48.472;11.934;2023-07-22T07:05:31;6.63;;;1.40;;
4232;SDS011;2130;48.472;11.934;2023-07-22T07:08:01;7.20;;;1.27;;
4232;SDS011;2130;48.472;11.934;2023-07-22T07:10:34;7.90;;;1.43;;
4232;SDS011;2130;48.472;11.934;2023-07-22T07:13:05;7.43;;;1.50;;
4232;SDS011;2130;48.472;11.934;2023-07-22T07:15:33;9.40;;;1.30;;
4232;SDS011;2130;48.472;11.934;2023-07-22T07:18:02;6.30;;;1.33;;
4232;SDS011;2130;48.472;11.934;2023-07-22T07:20:32;7.30;;;1.43;;
4232;SDS011;2130;48.472;11.934;2023-07-22T07:23:00;6.70;;;1.23;;
4232;SDS011;2130;48.472;11.934;2023-07-22T07:25:29;6.63;;;1.23;;
4232;SDS011;2130;48.472;11.934;2023-07-22T07:28:00;8.80;;;1.60;;
4232;SDS011;2130;48.472;11.934;2023-07-22T07:30:29;6.93;;;1.17;;
4232;SDS011;2130;48.472;11.934;2023-07-22T07:32:59;6.77;;;1.03;;
4232;SDS011;2130;48.472;11.934;2023-07-22T07:35:27;14.20;;;1.50;;
4232;SDS011;2130;48.472;11.934;2023-07-22T07:37:56;7.00;;;1.17;;
4232;SDS011;2130;48.472;11.934;2023-07-22T07:40:25;6.50;;;1.10;;
4232;SDS011;2130;48.472;11.934;2023-07-22T07:42:53;6.30;;;1.17;;
4232;SDS011;2130;48.472;11.934;2023-07-22T07:45:23;6.17;;;1.00;;
4232;SDS011;2130;48.472;11.934;2023-07-22T07:47:52;6.70;;;1.10;;
4232;SDS011;2130;48.472;11.934;2023-07-22T07:50:21;7.40;;;1.27;;
4232;SDS011;2130;48.472;11.934;2023-07-22T07:52:50;7.60;;;1.30;;
4232;SDS011;2130;48.472;11.934;2023-07-22T07:55:18;6.83;;;1.47;;
4232;SDS011;2130;48.472;11.934;2023-07-22T07:57:47;6.67;;;1.20;;
4232;SDS011;2130;48.472;11.934;2023-07-22T08:00:16;7.00;;;1.20;;
4232;SDS011;2130;48.472;11.934;2023-07-22T08:05:41;6.13;;;1.00;;
4232;SDS011;2130;48.472;11.934;2023-07-22T08:08:10;7.23;;;1.33;;
4232;SDS011;2130;48.472;11.934;2023-07-22T08:10:39;8.33;;;1.17;;
4232;SDS011;2130;48.472;11.934;2023-07-22T08:13:08;7.47;;;1.30;;
4232;SDS011;2130;48.472;11.934;2023-07-22T08:15:40;7.70;;;1.23;;
4232;SDS011;2130;48.472;11.934;2023-07-22T08:18:09;5.70;;;1.00;;
4232;SDS011;2130;48.472;11.934;2023-07-22T08:20:39;7.10;;;1.07;;
4232;SDS011;2130;48.472;11.934;2023-07-22T08:23:08;6.17;;;1.20;;
4232;SDS011;2130;48.472;11.934;2023-07-22T08:25:37;6.63;;;1.23;;
4232;SDS011;2130;48.472;11.934;2023-07-22T08:28:08;7.03;;;1.17;;
4232;SDS011;2130;48.472;11.934;2023-07-22T08:30:36;6.10;;;1.00;;
4232;SDS011;2130;48.472;11.934;2023-07-22T08:33:07;6.70;;;1.10;;
4232;SDS011;2130;48.472;11.934;2023-07-22T08:35:36;6.40;;;1.00;;
4232;SDS011;2130;48.472;11.934;2023-07-22T08:41:25;7.00;;;1.10;;
4232;SDS011;2130;48.472;11.934;2023-07-22T08:43:54;6.43;;;1.13;;
4232;SDS011;2130;48.472;11.934;2023-07-22T08:46:24;7.23;;;1.20;;
4232;SDS011;2130;48.472;11.934;2023-07-22T08:48:57;6.83;;;1.40;;
4232;SDS011;2130;48.472;11.934;2023-07-22T08:51:28;6.43;;;1.20;;
4232;SDS011;2130;48.472;11.934;2023-07-22T08:53:59;7.13;;;1.10;;
4232;SDS011;2130;48.472;11.934;2023-07-22T08:56:39;7.20;;;1.33;;
4232;SDS011;2130;48.472;11.934;2023-07-22T08:59:07;6.63;;;1.00;;
4232;SDS011;2130;48.472;11.934;2023-07-22T09:01:37;6.17;;;0.93;;
4232;SDS011;2130;48.472;11.934;2023-07-22T09:04:07;6.43;;;1.00;;
4232;SDS011;2130;48.472;11.934;2023-07-22T09:06:36;7.73;;;1.20;;
4232;SDS011;2130;48.472;11.934;2023-07-22T09:09:05;6.80;;;1.13;;
4232;SDS011;2130;48.472;11.934;2023-07-22T09:11:35;5.97;;;1.23;;
4232;SDS011;2130;48.472;11.934;2023-07-22T09:14:05;7.07;;;1.03;;
4232;SDS011;2130;48.472;11.934;2023-07-22T09:16:38;7.77;;;1.13;;
4232;SDS011;2130;48.472;11.934;2023-07-22T09:19:06;6.27;;;1.10;;
4232;SDS011;2130;48.472;11.934;2023-07-22T09:21:35;6.57;;;1.27;;
4232;SDS011;2130;48.472;11.934;2023-07-22T09:24:19;6.70;;;1.07;;
4232;SDS011;2130;48.472;11.934;2023-07-22T09:26:49;6.77;;;1.30;;
4232;SDS011;2130;48.472;11.934;2023-07-22T09:29:19;6.70;;;1.10;;
4232;SDS011;2130;48.472;11.934;2023-07-22T09:32:00;6.57;;;1.03;;
4232;SDS011;2130;48.472;11.934;2023-07-22T09:34:33;6.03;;;1.10;;
4232;SDS011;2130;48.472;11.934;2023-07-22T09:37:02;7.37;;;1.00;;
4232;SDS011;2130;48.472;11.934;2023-07-22T09:39:32;6.33;;;0.90;;
4232;SDS011;2130;48.472;11.934;2023-07-22T09:42:03;7.03;;;1.10;;
4232;SDS011;2130;48.472;11.934;2023-07-22T09:44:34;7.30;;;1.17;;
4232;SDS011;2130;48.472;11.934;2023-07-22T09:47:08;6.30;;;1.10;;
4232;SDS011;2130;48.472;11.934;2023-07-22T09:49:39;6.57;;;0.90;;
4232;SDS011;2130;48.472;11.934;2023-07-22T09:52:09;7.30;;;1.20;;
4232;SDS011;2130;48.472;11.934;2023-07-22T09:54:46;5.90;;;0.90;;
4232;SDS011;2130;48.472;11.934;2023-07-22T09:57:16;6.10;;;0.90;;
4232;SDS011;2130;48.472;11.934;2023-07-22T09:59:47;7.07;;;1.00;;
4232;SDS011;2130;48.472;11.934;2023-07-22T10:02:17;6.87;;;1.00;;
4232;SDS011;2130;48.472;11.934;2023-07-22T10:04:47;6.63;;;1.00;;
4232;SDS011;2130;48.472;11.934;2023-07-22T10:07:19;7.03;;;1.23;;
4232;SDS011;2130;48.472;11.934;2023-07-22T10:09:47;6.03;;;1.30;;
4232;SDS011;2130;48.472;11.934;2023-07-22T10:12:17;5.57;;;1.00;;
4232;SDS011;2130;48.472;11.934;2023-07-22T10:14:45;6.80;;;1.00;;
4232;SDS011;2130;48.472;11.934;2023-07-22T10:17:16;6.50;;;1.20;;
4232;SDS011;2130;48.472;11.934;2023-07-22T10:19:45;6.97;;;1.20;;
4232;SDS011;2130;48.472;11.934;2023-07-22T10:22:13;6.40;;;1.27;;
4232;SDS011;2130;48.472;11.934;2023-07-22T10:24:42;7.37;;;1.30;;
4232;SDS011;2130;48.472;11.934;2023-07-22T10:27:12;5.40;;;1.03;;
4232;SDS011;2130;48.472;11.934;2023-07-22T10:29:41;5.30;;;1.00;;
4232;SDS011;2130;48.472;11.934;2023-07-22T10:32:13;5.37;;;1.03;;
4232;SDS011;2130;48.472;11.934;2023-07-22T10:34:42;5.90;;;1.10;;
4232;SDS011;2130;48.472;11.934;2023-07-22T10:37:12;5.90;;;1.30;;
4232;SDS011;2130;48.472;11.934;2023-07-22T10:39:40;6.83;;;1.40;;
4232;SDS011;2130;48.472;11.934;2023-07-22T10:42:09;7.27;;;1.33;;
4232;SDS011;2130;48.472;11.934;2023-07-22T10:44:52;6.57;;;1.20;;
4232;SDS011;2130;48.472;11.934;2023-07-22T10:47:32;6.03;;;1.17;;
4232;SDS011;2130;48.472;11.934;2023-07-22T10:50:07;5.90;;;1.17;;
4232;SDS011;2130;48.472;11.934;2023-07-22T10:52:41;5.27;;;1.20;;
4232;SDS011;2130;48.472;11.934;2023-07-22T10:55:14;5.93;;;1.17;;
4232;SDS011;2130;48.472;11.934;2023-07-22T10:57:49;4.80;;;0.90;;
4232;SDS011;2130;48.472;11.934;2023-07-22T11:00:20;6.50;;;1.23;;
4232;SDS011;2130;48.472;11.934;2023-07-22T11:05:50;6.80;;;0.90;;
4232;SDS011;2130;48.472;11.934;2023-07-22T11:08:35;6.57;;;1.27;;
4232;SDS011;2130;48.472;11.934;2023-07-22T11:11:05;6.10;;;1.10;;
4232;SDS011;2130;48.472;11.934;2023-07-22T11:13:40;5.97;;;0.90;;
4232;SDS011;2130;48.472;11.934;2023-07-22T11:16:10;5.27;;;0.90;;
4232;SDS011;2130;48.472;11.934;2023-07-22T11:18:41;5.80;;;1.10;;
4232;SDS011;2130;48.472;11.934;2023-07-22T11:21:10;5.83;;;1.03;;
4232;SDS011;2130;48.472;11.934;2023-07-22T11:23:39;5.70;;;0.90;;
4232;SDS011;2130;48.472;11.934;2023-07-22T11:26:08;6.50;;;0.90;;
4232;SDS011;2130;48.472;11.934;2023-07-22T11:28:38;6.40;;;1.30;;
4232;SDS011;2130;48.472;11.934;2023-07-22T11:31:08;5.50;;;1.10;;
4232;SDS011;2130;48.472;11.934;2023-07-22T11:33:41;5.47;;;1.00;;
4232;SDS011;2130;48.472;11.934;2023-07-22T11:36:13;5.83;;;1.30;;
4232;SDS011;2130;48.472;11.934;2023-07-22T11:38:42;5.80;;;1.10;;
4232;SDS011;2130;48.472;11.934;2023-07-22T11:41:10;5.30;;;1.10;;
4232;SDS011;2130;48.472;11.934;2023-07-22T11:43:39;5.10;;;0.90;;
4232;SDS011;2130;48.472;11.934;2023-07-22T11:46:08;5.80;;;1.00;;
4232;SDS011;2130;48.472;11.934;2023-07-22T11:48:36;6.10;;;1.20;;
4232;SDS011;2130;48.472;11.934;2023-07-22T11:51:08;5.03;;;1.10;;
4232;SDS011;2130;48.472;11.934;2023-07-22T11:53:36;6.07;;;1.13;;
4232;SDS011;2130;48.472;11.934;2023-07-22T11:58:59;5.40;;;1.00;;
4232;SDS011;2130;48.472;11.934;2023-07-22T12:01:29;5.93;;;1.13;;
4232;SDS011;2130;48.472;11.934;2023-07-22T12:04:00;5.87;;;0.90;;
4232;SDS011;2130;48.472;11.934;2023-07-22T12:09:25;7.33;;;1.30;;
4232;SDS011;2130;48.472;11.934;2023-07-22T12:11:55;5.70;;;1.20;;
4232;SDS011;2130;48.472;11.934;2023-07-22T12:14:31;5.47;;;1.00;;
4232;SDS011;2130;48.472;11.934;2023-07-22T12:17:01;5.60;;;1.10;;
4232;SDS011;2130;48.472;11.934;2023-07-22T12:19:30;6.73;;;1.40;;
4232;SDS011;2130;48.472;11.934;2023-07-22T12:22:00;6.40;;;1.20;;
4232;SDS011;2130;48.472;11.934;2023-07-22T12:24:30;5.40;;;1.17;;
4232;SDS011;2130;48.472;11.934;2023-07-22T12:26:58;6.60;;;1.10;;
4232;SDS011;2130;48.472;11.934;2023-07-22T12:29:27;6.33;;;0.97;;
4232;SDS011;2130;48.472;11.934;2023-07-22T12:31:56;6.47;;;1.10;;
4232;SDS011;2130;48.472;11.934;2023-07-22T12:34:25;7.10;;;1.10;;
4232;SDS011;2130;48.472;11.934;2023-07-22T12:36:54;9.63;;;1.13;;
4232;SDS011;2130;48.472;11.934;2023-07-22T12:39:24;5.60;;;1.10;;
4232;SDS011;2130;48.472;11.934;2023-07-22T12:41:55;5.80;;;1.20;;
4232;SDS011;2130;48.472;11.934;2023-07-22T12:44:24;6.30;;;1.10;;
4232;SDS011;2130;48.472;11.934;2023-07-22T12:46:52;5.67;;;1.20;;
4232;SDS011;2130;48.472;11.934;2023-07-22T12:49:21;5.67;;;1.17;;
4232;SDS011;2130;48.472;11.934;2023-07-22T12:51:50;6.20;;;1.13;;
4232;SDS011;2130;48.472;11.934;2023-07-22T12:54:18;5.10;;;1.00;;
4232;SDS011;2130;48.472;11.934;2023-07-22T12:59:42;6.17;;;1.20;;
4232;SDS011;2130;48.472;11.934;2023-07-22T13:02:14;5.37;;;1.10;;
4232;SDS011;2130;48.472;11.934;2023-07-22T13:04:42;4.93;;;1.03;;
4232;SDS011;2130;48.472;11.934;2023-07-22T13:07:11;5.87;;;1.10;;
4232;SDS011;2130;48.472;11.934;2023-07-22T13:09:40;4.47;;;1.10;;
4232;SDS011;2130;48.472;11.934;2023-07-22T13:12:10;5.30;;;1.00;;
4232;SDS011;2130;48.472;11.934;2023-07-22T13:14:40;5.70;;;1.20;;
4232;SDS011;2130;48.472;11.934;2023-07-22T13:17:09;5.40;;;1.03;;
4232;SDS011;2130;48.472;11.934;2023-07-22T13:19:38;5.23;;;1.03;;
4232;SDS011;2130;48.472;11.934;2023-07-22T13:22:06;5.30;;;1.00;;
4232;SDS011;2130;48.472;11.934;2023-07-22T13:24:35;5.00;;;1.10;;
4232;SDS011;2130;48.472;11.934;2023-07-22T13:27:04;5.80;;;1.10;;
4232;SDS011;2130;48.472;11.934;2023-07-22T13:29:34;5.13;;;1.00;;
4232;SDS011;2130;48.472;11.934;2023-07-22T13:32:04;6.00;;;1.27;;
4232;SDS011;2130;48.472;11.934;2023-07-22T13:34:34;4.80;;;1.17;;
4232;SDS011;2130;48.472;11.934;2023-07-22T13:37:03;5.33;;;1.00;;
4232;SDS011;2130;48.472;11.934;2023-07-22T13:39:33;6.70;;;1.20;;
4232;SDS011;2130;48.472;11.934;2023-07-22T13:42:02;5.50;;;0.97;;
4232;SDS011;2130;48.472;11.934;2023-07-22T13:44:31;4.90;;;0.90;;
4232;SDS011;2130;48.472;11.934;2023-07-22T13:47:00;5.23;;;1.07;;
4232;SDS011;2130;48.472;11.934;2023-07-22T13:49:30;6.10;;;1.40;;
4232;SDS011;2130;48.472;11.934;2023-07-22T13:51:58;5.20;;;0.97;;
4232;SDS011;2130;48.472;11.934;2023-07-22T13:54:28;5.83;;;1.10;;
4232;SDS011;2130;48.472;11.934;2023-07-22T13:56:57;5.33;;;1.07;;
4232;SDS011;2130;48.472;11.934;2023-07-22T13:59:27;8.07;;;1.10;;
4232;SDS011;2130;48.472;11.934;2023-07-22T14:01:56;5.50;;;1.00;;
4232;SDS011;2130;48.472;11.934;2023-07-22T14:04:25;5.87;;;1.00;;
4232;SDS011;2130;48.472;11.934;2023-07-22T14:06:55;6.90;;;1.10;;
4232;SDS011;2130;48.472;11.934;2023-07-22T14:09:24;7.30;;;1.27;;
4232;SDS011;2130;48.472;11.934;2023-07-22T14:11:53;5.13;;;1.13;;
4232;SDS011;2130;48.472;11.934;2023-07-22T14:14:22;5.33;;;1.23;;
4232;SDS011;2130;48.472;11.934;2023-07-22T14:16:56;6.17;;;1.20;;
4232;SDS011;2130;48.472;11.934;2023-07-22T14:19:24;5.03;;;1.10;;
4232;SDS011;2130;48.472;11.934;2023-07-22T14:21:53;4.63;;;0.90;;
4232;SDS011;2130;48.472;11.934;2023-07-22T14:24:23;4.20;;;0.90;;
4232;SDS011;2130;48.472;11.934;2023-07-22T14:26:52;5.33;;;1.10;;
4232;SDS011;2130;48.472;11.934;2023-07-22T14:29:22;5.17;;;1.10;;
4232;SDS011;2130;48.472;11.934;2023-07-22T14:31:52;5.60;;;1.07;;
4232;SDS011;2130;48.472;11.934;2023-07-22T14:37:18;5.23;;;1.20;;
4232;SDS011;2130;48.472;11.934;2023-07-22T14:39:48;5.20;;;1.40;;
4232;SDS011;2130;48.472;11.934;2023-07-22T14:42:17;5.20;;;0.90;;
4232;SDS011;2130;48.472;11.934;2023-07-22T14:44:46;5.47;;;1.30;;
4232;SDS011;2130;48.472;11.934;2023-07-22T14:47:15;6.03;;;1.30;;
4232;SDS011;2130;48.472;11.934;2023-07-22T14:49:43;5.87;;;1.33;;
4232;SDS011;2130;48.472;11.934;2023-07-22T14:52:12;4.70;;;1.20;;
4232;SDS011;2130;48.472;11.934;2023-07-22T14:54:41;5.47;;;1.07;;
4232;SDS011;2130;48.472;11.934;2023-07-22T14:57:11;5.13;;;1.07;;
4232;SDS011;2130;48.472;11.934;2023-07-22T14:59:40;5.60;;;1.30;;
4232;SDS011;2130;48.472;11.934;2023-07-22T15:02:09;5.83;;;1.27;;
4232;SDS011;2130;48.472;11.934;2023-07-22T15:04:38;4.83;;;1.17;;
4232;SDS011;2130;48.472;11.934;2023-07-22T15:07:06;6.53;;;1.40;;
4232;SDS011;2130;48.472;11.934;2023-07-22T15:09:35;5.43;;;1.30;;
4232;SDS011;2130;48.472;11.934;2023-07-22T15:12:04;5.30;;;1.50;;
4232;SDS011;2130;48.472;11.934;2023-07-22T15:14:36;6.87;;;1.20;;
4232;SDS011;2130;48.472;11.934;2023-07-22T15:17:05;5.80;;;1.40;;
4232;SDS011;2130;48.472;11.934;2023-07-22T15:19:35;7.90;;;1.23;;
4232;SDS011;2130;48.472;11.934;2023-07-22T15:22:03;10.63;;;1.30;;
4232;SDS011;2130;48.472;11.934;2023-07-22T15:24:32;4.87;;;1.13;;
4232;SDS011;2130;48.472;11.934;2023-07-22T15:27:01;4.77;;;1.10;;
4232;SDS011;2130;48.472;11.934;2023-07-22T15:29:30;5.20;;;1.13;;
4232;SDS011;2130;48.472;11.934;2023-07-22T15:32:00;4.93;;;1.20;;
4232;SDS011;2130;48.472;11.934;2023-07-22T15:34:29;5.03;;;1.30;;
4232;SDS011;2130;48.472;11.934;2023-07-22T15:39:52;5.80;;;1.30;;
4232;SDS011;2130;48.472;11.934;2023-07-22T15:42:21;5.40;;;1.10;;
4232;SDS011;2130;48.472;11.934;2023-07-22T15:44:49;4.53;;;1.10;;
4232;SDS011;2130;48.472;11.934;2023-07-22T15:47:19;5.20;;;1.10;;